地図

経路データ

SID SEASON NUMBER BASIN SUBBASIN NAME ISO_TIME NATURE LAT LON WMO_WIND WMO_PRES WMO_AGENCY TRACK_TYPE DIST2LAND LANDFALL IFLAG USA_AGENCY USA_ATCF_ID USA_LAT USA_LON USA_RECORD USA_STATUS USA_WIND USA_PRES USA_SSHS USA_R34_NE USA_R34_SE USA_R34_SW USA_R34_NW USA_R50_NE USA_R50_SE USA_R50_SW USA_R50_NW USA_R64_NE USA_R64_SE USA_R64_SW USA_R64_NW USA_POCI USA_ROCI USA_RMW USA_EYE TOKYO_LAT TOKYO_LON TOKYO_GRADE TOKYO_WIND TOKYO_PRES TOKYO_R50_DIR TOKYO_R50_LONG TOKYO_R50_SHORT TOKYO_R30_DIR TOKYO_R30_LONG TOKYO_R30_SHORT TOKYO_LAND CMA_LAT CMA_LON CMA_CAT CMA_WIND CMA_PRES HKO_LAT HKO_LON HKO_CAT HKO_WIND HKO_PRES NEWDELHI_LAT NEWDELHI_LON NEWDELHI_GRADE NEWDELHI_WIND NEWDELHI_PRES NEWDELHI_CI NEWDELHI_DP NEWDELHI_POCI REUNION_LAT REUNION_LON REUNION_TYPE REUNION_WIND REUNION_PRES REUNION_TNUM REUNION_CI REUNION_RMW REUNION_R34_NE REUNION_R34_SE REUNION_R34_SW REUNION_R34_NW REUNION_R50_NE REUNION_R50_SE REUNION_R50_SW REUNION_R50_NW REUNION_R64_NE REUNION_R64_SE REUNION_R64_SW REUNION_R64_NW BOM_LAT BOM_LON BOM_TYPE BOM_WIND BOM_PRES BOM_TNUM BOM_CI BOM_RMW BOM_R34_NE BOM_R34_SE BOM_R34_SW BOM_R34_NW BOM_R50_NE BOM_R50_SE BOM_R50_SW BOM_R50_NW BOM_R64_NE BOM_R64_SE BOM_R64_SW BOM_R64_NW BOM_ROCI BOM_POCI BOM_EYE BOM_POS_METHOD BOM_PRES_METHOD NADI_LAT NADI_LON NADI_CAT NADI_WIND NADI_PRES WELLINGTON_LAT WELLINGTON_LON WELLINGTON_WIND WELLINGTON_PRES DS824_LAT DS824_LON DS824_STAGE DS824_WIND DS824_PRES TD9636_LAT TD9636_LON TD9636_STAGE TD9636_WIND TD9636_PRES TD9635_LAT TD9635_LON TD9635_WIND TD9635_PRES TD9635_ROCI NEUMANN_LAT NEUMANN_LON NEUMANN_CLASS NEUMANN_WIND NEUMANN_PRES MLC_LAT MLC_LON MLC_CLASS MLC_WIND MLC_PRES USA_GUST BOM_GUST BOM_GUST_PER REUNION_GUST REUNION_GUST_PER USA_SEAHGT USA_SEARAD_NE USA_SEARAD_SE USA_SEARAD_SW USA_SEARAD_NW STORM_SPEED STORM_DIR
1895303N13120 1895 44 WP MM NOT_NAMED 1895-10-29 16:00:00 NR 13.1000 119.600 main 82 82 __________O___ -1 13.1000 119.600 7 14 319
1895303N13120 1895 44 WP MM NOT_NAMED 1895-10-29 18:00:00 NR 13.4526 119.280 main 108 108 __________P___ -1 13.4526 119.280 7 14 318
1895303N13120 1895 44 WP MM NOT_NAMED 1895-10-29 21:00:00 NR 13.9614 118.812 main 166 166 __________P___ -1 13.9614 118.812 7 13 318
1895303N13120 1895 44 WP MM NOT_NAMED 1895-10-30 00:00:00 NR 14.4195 118.380 main 188 188 __________P___ -1 14.4195 118.380 7 11 317
1895303N13120 1895 44 WP MM NOT_NAMED 1895-10-30 03:00:00 NR 14.7971 118.007 main 214 211 __________P___ -1 14.7971 118.007 7 10 316
1895303N13120 1895 44 WP MM NOT_NAMED 1895-10-30 04:00:00 NR 14.9000 117.900 main 221 221 __________O___ -1 14.9000 117.900 7 8 314
1895303N13120 1895 44 WP MM NOT_NAMED 1895-10-30 06:00:00 NR 15.0681 117.714 main 236 236 __________P___ -1 15.0681 117.714 7 6 311
1895303N13120 1895 44 WP MM NOT_NAMED 1895-10-30 09:00:00 NR 15.2448 117.486 main 252 248 __________P___ -1 15.2448 117.486 7 5 306
1895303N13120 1895 44 WP MM NOT_NAMED 1895-10-30 12:00:00 NR 15.3645 117.287 main 265 265 __________P___ -1 15.3645 117.287 7 5 299
1895303N13120 1895 44 WP MM NOT_NAMED 1895-10-30 15:00:00 NR 15.4646 117.078 main 283 283 __________P___ -1 15.4646 117.078 7 5 296
1895303N13120 1895 44 WP MM NOT_NAMED 1895-10-30 16:00:00 NR 15.5000 117.000 main 294 294 __________O___ -1 15.5000 117.000 7 6 299
1895303N13120 1895 44 WP MM NOT_NAMED 1895-10-30 18:00:00 NR 15.6025 116.822 main 313 313 __________P___ -1 15.6025 116.822 7 6 299
1895303N13120 1895 44 WP MM NOT_NAMED 1895-10-30 21:00:00 NR 15.7562 116.530 main 343 343 __________P___ -1 15.7562 116.530 7 7 297
1895303N13120 1895 44 WP MM NOT_NAMED 1895-10-31 00:00:00 NR 15.9075 116.202 main 374 374 __________P___ -1 15.9075 116.202 7 7 294
1895303N13120 1895 44 WP MM NOT_NAMED 1895-10-31 03:00:00 NR 16.0532 115.833 main 417 417 __________P___ -1 16.0532 115.833 7 8 292
1895303N13120 1895 44 WP MM NOT_NAMED 1895-10-31 04:00:00 NR 16.1000 115.700 main 427 427 __________O___ -1 16.1000 115.700 3 8 290
1895303N13120 1895 44 WP MM NOT_NAMED 1895-10-31 06:00:00 NR 16.1941 115.431 main 460 460 __________P___ -1 16.1941 115.431 3 9 289
1895303N13120 1895 44 WP MM NOT_NAMED 1895-10-31 09:00:00 NR 16.3291 114.989 main 503 495 __________P___ -1 16.3291 114.989 3 9 286
1895303N13120 1895 44 WP MM NOT_NAMED 1895-10-31 12:00:00 NR 16.4541 114.505 main 495 445 __________P___ -1 16.4541 114.505 3 10 284
1895303N13120 1895 44 WP MM NOT_NAMED 1895-10-31 15:00:00 NR 16.5661 113.982 main 445 427 __________P___ -1 16.5661 113.982 3 10 282
1895303N13120 1895 44 WP MM NOT_NAMED 1895-10-31 16:00:00 NR 16.6000 113.800 main 427 386 __________O___ -1 16.6000 113.800 4 11 280
1895303N13120 1895 44 WP MM NOT_NAMED 1895-10-31 18:00:00 NR 16.6624 113.424 main 386 338 __________P___ -1 16.6624 113.424 4 11 279
1895303N13120 1895 44 WP MM NOT_NAMED 1895-10-31 21:00:00 NR 16.7444 112.836 main 338 285 __________P___ -1 16.7444 112.836 4 12 278
1895303N13120 1895 44 WP MM NOT_NAMED 1895-11-01 00:00:00 NR 16.8155 112.228 main 285 238 __________P___ -1 16.8155 112.228 4 12 277
1895303N13120 1895 44 WP MM NOT_NAMED 1895-11-01 03:00:00 NR 16.8795 111.608 main 238 224 __________P___ -1 16.8795 111.608 4 12 276
1895303N13120 1895 44 WP MM NOT_NAMED 1895-11-01 04:00:00 NR 16.9000 111.400 main 224 __________O___ -1 16.9000 111.400 7 12 276

デジタル台風データ・検索

IBTrACS Databaseについて

本データベースは、米国NOAAが公開する1842年以降の世界の熱帯低気圧のベストトラックデータアーカイブInternational Best Track Archive for Climate Stewardship (IBTrACS)を、ウェブで閲覧しやすい形式に変換したものです。

最終更新日:2021-12-03